sensor_id;sensor_type;location;lat;lon;timestamp;P1;durP1;ratioP1;P2;durP2;ratioP2
23252;SDS011;11795;47.054;15.408;2022-12-15T00:00:58;40.0;;;27.1;;
23252;SDS011;11795;47.054;15.408;2022-12-15T00:03:02;37.6;;;26.2;;
23252;SDS011;11795;47.054;15.408;2022-12-15T00:04:58;37.6;;;26.2;;
23252;SDS011;11795;47.054;15.408;2022-12-15T00:06:58;43.2;;;28.2;;
23252;SDS011;11795;47.054;15.408;2022-12-15T00:11:00;43.2;;;28.2;;
23252;SDS011;11795;47.054;15.408;2022-12-15T00:12:58;39.2;;;27.2;;
23252;SDS011;11795;47.054;15.408;2022-12-15T00:14:58;39.2;;;27.2;;
23252;SDS011;11795;47.054;15.408;2022-12-15T00:16:58;43.8;;;29.6;;
23252;SDS011;11795;47.054;15.408;2022-12-15T00:18:58;43.8;;;29.6;;
23252;SDS011;11795;47.054;15.408;2022-12-15T00:20:58;43.8;;;29.6;;
23252;SDS011;11795;47.054;15.408;2022-12-15T00:23:05;40.1;;;27.0;;
23252;SDS011;11795;47.054;15.408;2022-12-15T00:24:58;40.1;;;27.0;;
23252;SDS011;11795;47.054;15.408;2022-12-15T00:26:58;37.3;;;26.8;;
23252;SDS011;11795;47.054;15.408;2022-12-15T00:28:58;37.3;;;26.8;;
23252;SDS011;11795;47.054;15.408;2022-12-15T00:30:58;37.3;;;26.8;;
23252;SDS011;11795;47.054;15.408;2022-12-15T00:32:58;43.3;;;28.8;;
23252;SDS011;11795;47.054;15.408;2022-12-15T00:34:58;43.3;;;28.8;;
23252;SDS011;11795;47.054;15.408;2022-12-15T00:36:58;45.5;;;30.3;;
23252;SDS011;11795;47.054;15.408;2022-12-15T00:38:48;45.5;;;30.3;;
23252;SDS011;11795;47.054;15.408;2022-12-15T00:40:49;45.5;;;30.3;;
23252;SDS011;11795;47.054;15.408;2022-12-15T00:42:48;38.7;;;27.2;;
23252;SDS011;11795;47.054;15.408;2022-12-15T00:44:50;38.7;;;27.2;;
23252;SDS011;11795;47.054;15.408;2022-12-15T00:46:56;38.1;;;26.8;;
23252;SDS011;11795;47.054;15.408;2022-12-15T00:48:48;38.1;;;26.8;;
23252;SDS011;11795;47.054;15.408;2022-12-15T00:50:51;38.1;;;26.8;;
23252;SDS011;11795;47.054;15.408;2022-12-15T00:52:58;41.1;;;27.6;;
23252;SDS011;11795;47.054;15.408;2022-12-15T00:54:58;41.1;;;27.6;;
23252;SDS011;11795;47.054;15.408;2022-12-15T00:56:58;39.4;;;28.0;;
23252;SDS011;11795;47.054;15.408;2022-12-15T00:58:58;39.4;;;28.0;;
23252;SDS011;11795;47.054;15.408;2022-12-15T01:01:04;39.4;;;28.0;;
23252;SDS011;11795;47.054;15.408;2022-12-15T01:02:58;44.7;;;30.0;;
23252;SDS011;11795;47.054;15.408;2022-12-15T01:04:58;44.7;;;30.0;;
23252;SDS011;11795;47.054;15.408;2022-12-15T01:06:58;41.5;;;27.7;;
23252;SDS011;11795;47.054;15.408;2022-12-15T01:08:58;41.5;;;27.7;;
23252;SDS011;11795;47.054;15.408;2022-12-15T01:10:59;41.5;;;27.7;;
23252;SDS011;11795;47.054;15.408;2022-12-15T01:12:58;38.9;;;27.6;;
23252;SDS011;11795;47.054;15.408;2022-12-15T01:14:58;38.9;;;27.6;;
23252;SDS011;11795;47.054;15.408;2022-12-15T01:16:58;38.5;;;27.2;;
23252;SDS011;11795;47.054;15.408;2022-12-15T01:18:58;38.5;;;27.2;;
23252;SDS011;11795;47.054;15.408;2022-12-15T01:20:53;38.5;;;27.2;;
23252;SDS011;11795;47.054;15.408;2022-12-15T01:22:49;40.5;;;28.8;;
23252;SDS011;11795;47.054;15.408;2022-12-15T01:24:48;40.5;;;28.8;;
23252;SDS011;11795;47.054;15.408;2022-12-15T01:26:48;40.5;;;28.6;;
23252;SDS011;11795;47.054;15.408;2022-12-15T01:28:48;40.5;;;28.6;;
23252;SDS011;11795;47.054;15.408;2022-12-15T01:30:48;40.5;;;28.6;;
23252;SDS011;11795;47.054;15.408;2022-12-15T01:32:48;37.6;;;26.6;;
23252;SDS011;11795;47.054;15.408;2022-12-15T01:34:48;37.6;;;26.6;;
23252;SDS011;11795;47.054;15.408;2022-12-15T01:36:48;44.6;;;28.6;;
23252;SDS011;11795;47.054;15.408;2022-12-15T01:38:48;44.6;;;28.6;;
23252;SDS011;11795;47.054;15.408;2022-12-15T01:40:50;44.6;;;28.6;;
23252;SDS011;11795;47.054;15.408;2022-12-15T01:42:48;37.0;;;26.7;;
23252;SDS011;11795;47.054;15.408;2022-12-15T01:44:49;37.0;;;26.7;;
23252;SDS011;11795;47.054;15.408;2022-12-15T01:46:49;37.3;;;26.4;;
23252;SDS011;11795;47.054;15.408;2022-12-15T01:48:50;37.3;;;26.4;;
23252;SDS011;11795;47.054;15.408;2022-12-15T01:50:50;37.3;;;26.4;;
23252;SDS011;11795;47.054;15.408;2022-12-15T01:52:48;40.7;;;26.7;;
23252;SDS011;11795;47.054;15.408;2022-12-15T01:54:49;40.7;;;26.7;;
23252;SDS011;11795;47.054;15.408;2022-12-15T01:56:49;38.0;;;27.0;;
23252;SDS011;11795;47.054;15.408;2022-12-15T01:58:49;38.0;;;27.0;;
23252;SDS011;11795;47.054;15.408;2022-12-15T02:00:48;38.0;;;27.0;;
23252;SDS011;11795;47.054;15.408;2022-12-15T02:02:48;38.5;;;26.4;;
23252;SDS011;11795;47.054;15.408;2022-12-15T02:04:49;38.5;;;26.4;;
23252;SDS011;11795;47.054;15.408;2022-12-15T02:06:48;42.8;;;29.4;;
23252;SDS011;11795;47.054;15.408;2022-12-15T02:08:49;42.8;;;29.4;;
23252;SDS011;11795;47.054;15.408;2022-12-15T02:10:54;42.8;;;29.4;;
23252;SDS011;11795;47.054;15.408;2022-12-15T02:12:50;38.7;;;27.4;;
23252;SDS011;11795;47.054;15.408;2022-12-15T02:14:52;38.7;;;27.4;;
23252;SDS011;11795;47.054;15.408;2022-12-15T02:16:53;44.1;;;29.8;;
23252;SDS011;11795;47.054;15.408;2022-12-15T02:18:53;44.1;;;29.8;;
23252;SDS011;11795;47.054;15.408;2022-12-15T02:20:50;44.1;;;29.8;;
23252;SDS011;11795;47.054;15.408;2022-12-15T02:22:52;39.2;;;27.6;;
23252;SDS011;11795;47.054;15.408;2022-12-15T02:24:55;39.2;;;27.6;;
23252;SDS011;11795;47.054;15.408;2022-12-15T02:26:55;42.2;;;29.0;;
23252;SDS011;11795;47.054;15.408;2022-12-15T02:28:51;42.2;;;29.0;;
23252;SDS011;11795;47.054;15.408;2022-12-15T02:30:58;42.2;;;29.0;;
23252;SDS011;11795;47.054;15.408;2022-12-15T02:32:52;43.7;;;29.2;;
23252;SDS011;11795;47.054;15.408;2022-12-15T02:34:49;43.7;;;29.2;;
23252;SDS011;11795;47.054;15.408;2022-12-15T02:36:49;42.9;;;28.2;;
23252;SDS011;11795;47.054;15.408;2022-12-15T02:38:48;42.9;;;28.2;;
23252;SDS011;11795;47.054;15.408;2022-12-15T02:40:55;42.9;;;28.2;;
23252;SDS011;11795;47.054;15.408;2022-12-15T02:42:49;38.0;;;26.4;;
23252;SDS011;11795;47.054;15.408;2022-12-15T02:44:49;38.0;;;26.4;;
23252;SDS011;11795;47.054;15.408;2022-12-15T02:46:53;40.7;;;28.6;;
23252;SDS011;11795;47.054;15.408;2022-12-15T02:48:52;40.7;;;28.6;;
23252;SDS011;11795;47.054;15.408;2022-12-15T02:50:51;40.7;;;28.6;;
23252;SDS011;11795;47.054;15.408;2022-12-15T02:52:51;34.7;;;24.8;;
23252;SDS011;11795;47.054;15.408;2022-12-15T02:54:52;34.7;;;24.8;;
23252;SDS011;11795;47.054;15.408;2022-12-15T02:56:51;33.5;;;25.4;;
23252;SDS011;11795;47.054;15.408;2022-12-15T02:58:51;33.5;;;25.4;;
23252;SDS011;11795;47.054;15.408;2022-12-15T03:00:49;33.5;;;25.4;;
23252;SDS011;11795;47.054;15.408;2022-12-15T03:02:49;41.2;;;28.1;;
23252;SDS011;11795;47.054;15.408;2022-12-15T03:04:48;41.2;;;28.1;;
23252;SDS011;11795;47.054;15.408;2022-12-15T03:06:52;37.8;;;27.8;;
23252;SDS011;11795;47.054;15.408;2022-12-15T03:08:49;37.8;;;27.8;;
23252;SDS011;11795;47.054;15.408;2022-12-15T03:10:48;37.8;;;27.8;;
23252;SDS011;11795;47.054;15.408;2022-12-15T03:12:49;43.9;;;29.8;;
23252;SDS011;11795;47.054;15.408;2022-12-15T03:14:48;43.9;;;29.8;;
23252;SDS011;11795;47.054;15.408;2022-12-15T03:16:48;39.6;;;28.0;;
23252;SDS011;11795;47.054;15.408;2022-12-15T03:18:48;39.6;;;28.0;;
23252;SDS011;11795;47.054;15.408;2022-12-15T03:20:48;39.6;;;28.0;;
23252;SDS011;11795;47.054;15.408;2022-12-15T03:22:48;37.2;;;26.0;;
23252;SDS011;11795;47.054;15.408;2022-12-15T03:24:48;37.2;;;26.0;;
23252;SDS011;11795;47.054;15.408;2022-12-15T03:26:49;39.3;;;27.4;;
23252;SDS011;11795;47.054;15.408;2022-12-15T03:28:48;39.3;;;27.4;;
23252;SDS011;11795;47.054;15.408;2022-12-15T03:30:49;39.3;;;27.4;;
23252;SDS011;11795;47.054;15.408;2022-12-15T03:32:48;38.4;;;27.0;;
23252;SDS011;11795;47.054;15.408;2022-12-15T03:34:48;38.4;;;27.0;;
23252;SDS011;11795;47.054;15.408;2022-12-15T03:36:48;34.1;;;24.0;;
23252;SDS011;11795;47.054;15.408;2022-12-15T03:38:48;34.1;;;24.0;;
23252;SDS011;11795;47.054;15.408;2022-12-15T03:40:48;34.1;;;24.0;;
23252;SDS011;11795;47.054;15.408;2022-12-15T03:42:49;35.0;;;24.3;;
23252;SDS011;11795;47.054;15.408;2022-12-15T03:44:49;35.0;;;24.3;;
23252;SDS011;11795;47.054;15.408;2022-12-15T03:46:48;37.3;;;25.5;;
23252;SDS011;11795;47.054;15.408;2022-12-15T03:48:49;37.3;;;25.5;;
23252;SDS011;11795;47.054;15.408;2022-12-15T03:50:48;37.3;;;25.5;;
23252;SDS011;11795;47.054;15.408;2022-12-15T03:52:49;40.6;;;28.4;;
23252;SDS011;11795;47.054;15.408;2022-12-15T03:54:48;40.6;;;28.4;;
23252;SDS011;11795;47.054;15.408;2022-12-15T03:56:49;38.8;;;27.8;;
23252;SDS011;11795;47.054;15.408;2022-12-15T03:58:49;38.8;;;27.8;;
23252;SDS011;11795;47.054;15.408;2022-12-15T04:00:49;38.8;;;27.8;;
23252;SDS011;11795;47.054;15.408;2022-12-15T04:02:49;39.0;;;27.7;;
23252;SDS011;11795;47.054;15.408;2022-12-15T04:04:48;39.0;;;27.7;;
23252;SDS011;11795;47.054;15.408;2022-12-15T04:06:48;37.9;;;26.0;;
23252;SDS011;11795;47.054;15.408;2022-12-15T04:08:49;37.9;;;26.0;;
23252;SDS011;11795;47.054;15.408;2022-12-15T04:10:48;37.9;;;26.0;;
23252;SDS011;11795;47.054;15.408;2022-12-15T04:12:50;37.6;;;28.0;;
23252;SDS011;11795;47.054;15.408;2022-12-15T04:14:49;37.6;;;28.0;;
23252;SDS011;11795;47.054;15.408;2022-12-15T04:16:48;39.6;;;27.9;;
23252;SDS011;11795;47.054;15.408;2022-12-15T04:18:58;39.6;;;27.9;;
23252;SDS011;11795;47.054;15.408;2022-12-15T04:20:48;39.6;;;27.9;;
23252;SDS011;11795;47.054;15.408;2022-12-15T04:22:49;42.3;;;28.6;;
23252;SDS011;11795;47.054;15.408;2022-12-15T04:24:58;42.3;;;28.6;;
23252;SDS011;11795;47.054;15.408;2022-12-15T04:26:58;35.1;;;25.7;;
23252;SDS011;11795;47.054;15.408;2022-12-15T04:28:58;35.1;;;25.7;;
23252;SDS011;11795;47.054;15.408;2022-12-15T04:30:59;35.1;;;25.7;;
23252;SDS011;11795;47.054;15.408;2022-12-15T04:32:58;36.4;;;25.8;;
23252;SDS011;11795;47.054;15.408;2022-12-15T04:34:58;36.4;;;25.8;;
23252;SDS011;11795;47.054;15.408;2022-12-15T04:36:58;37.5;;;26.4;;
23252;SDS011;11795;47.054;15.408;2022-12-15T04:38:58;37.5;;;26.4;;
23252;SDS011;11795;47.054;15.408;2022-12-15T04:40:58;37.5;;;26.4;;
23252;SDS011;11795;47.054;15.408;2022-12-15T04:42:58;33.7;;;24.3;;
23252;SDS011;11795;47.054;15.408;2022-12-15T04:44:59;33.7;;;24.3;;
23252;SDS011;11795;47.054;15.408;2022-12-15T04:46:58;33.5;;;24.0;;
23252;SDS011;11795;47.054;15.408;2022-12-15T04:48:58;33.5;;;24.0;;
23252;SDS011;11795;47.054;15.408;2022-12-15T04:50:58;33.5;;;24.0;;
23252;SDS011;11795;47.054;15.408;2022-12-15T04:53:05;34.9;;;25.2;;
23252;SDS011;11795;47.054;15.408;2022-12-15T04:54:58;34.9;;;25.2;;
23252;SDS011;11795;47.054;15.408;2022-12-15T04:56:58;33.6;;;24.9;;
23252;SDS011;11795;47.054;15.408;2022-12-15T04:58:58;33.6;;;24.9;;
23252;SDS011;11795;47.054;15.408;2022-12-15T05:00:58;33.6;;;24.9;;
23252;SDS011;11795;47.054;15.408;2022-12-15T05:03:02;36.3;;;25.3;;
23252;SDS011;11795;47.054;15.408;2022-12-15T05:04:58;36.3;;;25.3;;
23252;SDS011;11795;47.054;15.408;2022-12-15T05:06:58;35.8;;;25.0;;
23252;SDS011;11795;47.054;15.408;2022-12-15T05:08:58;35.8;;;25.0;;
23252;SDS011;11795;47.054;15.408;2022-12-15T05:10:59;35.8;;;25.0;;
23252;SDS011;11795;47.054;15.408;2022-12-15T05:13:02;36.9;;;25.8;;
23252;SDS011;11795;47.054;15.408;2022-12-15T05:14:58;36.9;;;25.8;;
23252;SDS011;11795;47.054;15.408;2022-12-15T05:16:58;39.9;;;26.8;;
23252;SDS011;11795;47.054;15.408;2022-12-15T05:18:58;39.9;;;26.8;;
23252;SDS011;11795;47.054;15.408;2022-12-15T05:20:58;39.9;;;26.8;;
23252;SDS011;11795;47.054;15.408;2022-12-15T05:22:58;34.3;;;24.3;;
23252;SDS011;11795;47.054;15.408;2022-12-15T05:24:58;34.3;;;24.3;;
23252;SDS011;11795;47.054;15.408;2022-12-15T05:26:58;36.5;;;26.2;;
23252;SDS011;11795;47.054;15.408;2022-12-15T05:28:58;36.5;;;26.2;;
23252;SDS011;11795;47.054;15.408;2022-12-15T05:30:58;36.5;;;26.2;;
23252;SDS011;11795;47.054;15.408;2022-12-15T05:32:49;33.4;;;23.9;;
23252;SDS011;11795;47.054;15.408;2022-12-15T05:34:49;33.4;;;23.9;;
23252;SDS011;11795;47.054;15.408;2022-12-15T05:36:49;34.5;;;24.3;;
23252;SDS011;11795;47.054;15.408;2022-12-15T05:38:49;34.5;;;24.3;;
23252;SDS011;11795;47.054;15.408;2022-12-15T05:40:49;34.5;;;24.3;;
23252;SDS011;11795;47.054;15.408;2022-12-15T05:42:49;33.8;;;24.4;;
23252;SDS011;11795;47.054;15.408;2022-12-15T05:44:49;33.8;;;24.4;;
23252;SDS011;11795;47.054;15.408;2022-12-15T05:46:49;34.0;;;24.3;;
23252;SDS011;11795;47.054;15.408;2022-12-15T05:48:49;34.0;;;24.3;;
23252;SDS011;11795;47.054;15.408;2022-12-15T05:50:49;34.0;;;24.3;;
23252;SDS011;11795;47.054;15.408;2022-12-15T05:52:49;32.1;;;23.0;;
23252;SDS011;11795;47.054;15.408;2022-12-15T05:54:49;32.1;;;23.0;;
23252;SDS011;11795;47.054;15.408;2022-12-15T05:56:49;36.6;;;25.1;;
23252;SDS011;11795;47.054;15.408;2022-12-15T05:58:49;36.6;;;25.1;;
23252;SDS011;11795;47.054;15.408;2022-12-15T06:00:49;36.6;;;25.1;;
23252;SDS011;11795;47.054;15.408;2022-12-15T06:02:49;35.1;;;24.8;;
23252;SDS011;11795;47.054;15.408;2022-12-15T06:04:49;35.1;;;24.8;;
23252;SDS011;11795;47.054;15.408;2022-12-15T06:06:49;33.0;;;24.0;;
23252;SDS011;11795;47.054;15.408;2022-12-15T06:08:49;33.0;;;24.0;;
23252;SDS011;11795;47.054;15.408;2022-12-15T06:10:51;33.0;;;24.0;;
23252;SDS011;11795;47.054;15.408;2022-12-15T06:12:49;31.6;;;23.3;;
23252;SDS011;11795;47.054;15.408;2022-12-15T06:14:49;31.6;;;23.3;;
23252;SDS011;11795;47.054;15.408;2022-12-15T06:16:49;32.5;;;23.4;;
23252;SDS011;11795;47.054;15.408;2022-12-15T06:18:51;32.5;;;23.4;;
23252;SDS011;11795;47.054;15.408;2022-12-15T06:20:49;32.5;;;23.4;;
23252;SDS011;11795;47.054;15.408;2022-12-15T06:22:49;33.3;;;23.4;;
23252;SDS011;11795;47.054;15.408;2022-12-15T06:24:50;33.3;;;23.4;;
23252;SDS011;11795;47.054;15.408;2022-12-15T06:26:49;35.8;;;25.1;;
23252;SDS011;11795;47.054;15.408;2022-12-15T06:28:49;35.8;;;25.1;;
23252;SDS011;11795;47.054;15.408;2022-12-15T06:30:50;35.8;;;25.1;;
23252;SDS011;11795;47.054;15.408;2022-12-15T06:32:49;36.9;;;26.0;;
23252;SDS011;11795;47.054;15.408;2022-12-15T06:34:49;36.9;;;26.0;;
23252;SDS011;11795;47.054;15.408;2022-12-15T06:36:49;32.7;;;22.9;;
23252;SDS011;11795;47.054;15.408;2022-12-15T06:38:49;32.7;;;22.9;;
23252;SDS011;11795;47.054;15.408;2022-12-15T06:40:53;32.7;;;22.9;;
23252;SDS011;11795;47.054;15.408;2022-12-15T06:42:49;34.4;;;24.2;;
23252;SDS011;11795;47.054;15.408;2022-12-15T06:44:49;34.4;;;24.2;;
23252;SDS011;11795;47.054;15.408;2022-12-15T06:46:49;32.4;;;23.8;;
23252;SDS011;11795;47.054;15.408;2022-12-15T06:48:49;32.4;;;23.8;;
23252;SDS011;11795;47.054;15.408;2022-12-15T06:50:49;32.4;;;23.8;;
23252;SDS011;11795;47.054;15.408;2022-12-15T06:52:49;39.7;;;27.0;;
23252;SDS011;11795;47.054;15.408;2022-12-15T06:54:49;39.7;;;27.0;;
23252;SDS011;11795;47.054;15.408;2022-12-15T06:56:49;33.8;;;24.7;;
23252;SDS011;11795;47.054;15.408;2022-12-15T06:58:49;33.8;;;24.7;;
23252;SDS011;11795;47.054;15.408;2022-12-15T07:00:49;33.8;;;24.7;;
23252;SDS011;11795;47.054;15.408;2022-12-15T07:02:50;37.7;;;26.6;;
23252;SDS011;11795;47.054;15.408;2022-12-15T07:04:49;37.7;;;26.6;;
23252;SDS011;11795;47.054;15.408;2022-12-15T07:06:49;40.8;;;27.7;;
23252;SDS011;11795;47.054;15.408;2022-12-15T07:08:51;40.8;;;27.7;;
23252;SDS011;11795;47.054;15.408;2022-12-15T07:10:49;40.8;;;27.7;;
23252;SDS011;11795;47.054;15.408;2022-12-15T07:12:50;45.2;;;29.1;;
23252;SDS011;11795;47.054;15.408;2022-12-15T07:14:49;45.2;;;29.1;;
23252;SDS011;11795;47.054;15.408;2022-12-15T07:16:49;40.0;;;27.6;;
23252;SDS011;11795;47.054;15.408;2022-12-15T07:18:49;40.0;;;27.6;;
23252;SDS011;11795;47.054;15.408;2022-12-15T07:20:49;40.0;;;27.6;;
23252;SDS011;11795;47.054;15.408;2022-12-15T07:22:49;40.6;;;26.8;;
23252;SDS011;11795;47.054;15.408;2022-12-15T07:24:49;40.6;;;26.8;;
23252;SDS011;11795;47.054;15.408;2022-12-15T07:26:49;40.7;;;26.4;;
23252;SDS011;11795;47.054;15.408;2022-12-15T07:28:49;40.7;;;26.4;;
23252;SDS011;11795;47.054;15.408;2022-12-15T07:30:49;40.7;;;26.4;;
23252;SDS011;11795;47.054;15.408;2022-12-15T07:32:49;36.1;;;24.8;;
23252;SDS011;11795;47.054;15.408;2022-12-15T07:34:49;36.1;;;24.8;;
23252;SDS011;11795;47.054;15.408;2022-12-15T07:36:49;36.7;;;25.9;;
23252;SDS011;11795;47.054;15.408;2022-12-15T07:38:49;36.7;;;25.9;;
23252;SDS011;11795;47.054;15.408;2022-12-15T07:40:49;36.7;;;25.9;;
23252;SDS011;11795;47.054;15.408;2022-12-15T07:42:49;37.3;;;26.0;;
23252;SDS011;11795;47.054;15.408;2022-12-15T07:44:49;37.3;;;26.0;;
23252;SDS011;11795;47.054;15.408;2022-12-15T07:46:49;40.5;;;26.7;;
23252;SDS011;11795;47.054;15.408;2022-12-15T07:48:49;40.5;;;26.7;;
23252;SDS011;11795;47.054;15.408;2022-12-15T07:50:50;40.5;;;26.7;;
23252;SDS011;11795;47.054;15.408;2022-12-15T07:52:49;34.2;;;24.7;;
23252;SDS011;11795;47.054;15.408;2022-12-15T07:54:49;34.2;;;24.7;;
23252;SDS011;11795;47.054;15.408;2022-12-15T07:56:49;35.2;;;24.0;;
23252;SDS011;11795;47.054;15.408;2022-12-15T07:58:49;35.2;;;24.0;;
23252;SDS011;11795;47.054;15.408;2022-12-15T08:00:49;35.2;;;24.0;;
23252;SDS011;11795;47.054;15.408;2022-12-15T08:02:49;36.4;;;25.1;;
23252;SDS011;11795;47.054;15.408;2022-12-15T08:04:49;36.4;;;25.1;;
23252;SDS011;11795;47.054;15.408;2022-12-15T08:06:51;35.0;;;24.2;;
23252;SDS011;11795;47.054;15.408;2022-12-15T08:08:49;35.0;;;24.2;;
23252;SDS011;11795;47.054;15.408;2022-12-15T08:10:49;35.0;;;24.2;;
23252;SDS011;11795;47.054;15.408;2022-12-15T08:12:49;32.0;;;23.3;;
23252;SDS011;11795;47.054;15.408;2022-12-15T08:14:49;32.0;;;23.3;;
23252;SDS011;11795;47.054;15.408;2022-12-15T08:16:49;29.6;;;21.5;;
23252;SDS011;11795;47.054;15.408;2022-12-15T08:18:49;29.6;;;21.5;;
23252;SDS011;11795;47.054;15.408;2022-12-15T08:20:49;29.6;;;21.5;;
23252;SDS011;11795;47.054;15.408;2022-12-15T08:22:50;32.7;;;22.9;;
23252;SDS011;11795;47.054;15.408;2022-12-15T08:24:49;32.7;;;22.9;;
23252;SDS011;11795;47.054;15.408;2022-12-15T08:26:49;30.4;;;22.3;;
23252;SDS011;11795;47.054;15.408;2022-12-15T08:28:49;30.4;;;22.3;;
23252;SDS011;11795;47.054;15.408;2022-12-15T08:30:49;30.4;;;22.3;;
23252;SDS011;11795;47.054;15.408;2022-12-15T08:32:50;31.5;;;22.9;;
23252;SDS011;11795;47.054;15.408;2022-12-15T08:34:49;31.5;;;22.9;;
23252;SDS011;11795;47.054;15.408;2022-12-15T08:36:49;36.3;;;25.3;;
23252;SDS011;11795;47.054;15.408;2022-12-15T08:38:49;36.3;;;25.3;;
23252;SDS011;11795;47.054;15.408;2022-12-15T08:40:49;36.3;;;25.3;;
23252;SDS011;11795;47.054;15.408;2022-12-15T08:42:49;32.3;;;23.5;;
23252;SDS011;11795;47.054;15.408;2022-12-15T08:44:49;32.3;;;23.5;;
23252;SDS011;11795;47.054;15.408;2022-12-15T08:46:50;33.7;;;24.4;;
23252;SDS011;11795;47.054;15.408;2022-12-15T08:48:49;33.7;;;24.4;;
23252;SDS011;11795;47.054;15.408;2022-12-15T08:50:49;33.7;;;24.4;;
23252;SDS011;11795;47.054;15.408;2022-12-15T08:52:49;33.5;;;24.8;;
23252;SDS011;11795;47.054;15.408;2022-12-15T08:54:49;33.5;;;24.8;;
23252;SDS011;11795;47.054;15.408;2022-12-15T08:56:49;31.7;;;23.2;;
23252;SDS011;11795;47.054;15.408;2022-12-15T08:58:52;31.7;;;23.2;;
23252;SDS011;11795;47.054;15.408;2022-12-15T09:00:49;31.7;;;23.2;;
23252;SDS011;11795;47.054;15.408;2022-12-15T09:02:49;32.1;;;23.4;;
23252;SDS011;11795;47.054;15.408;2022-12-15T09:04:50;32.1;;;23.4;;
23252;SDS011;11795;47.054;15.408;2022-12-15T09:06:49;34.9;;;25.1;;
23252;SDS011;11795;47.054;15.408;2022-12-15T09:08:49;34.9;;;25.1;;
23252;SDS011;11795;47.054;15.408;2022-12-15T09:10:49;34.9;;;25.1;;
23252;SDS011;11795;47.054;15.408;2022-12-15T09:12:49;33.6;;;23.4;;
23252;SDS011;11795;47.054;15.408;2022-12-15T09:14:49;33.6;;;23.4;;
23252;SDS011;11795;47.054;15.408;2022-12-15T09:16:49;32.0;;;23.9;;
23252;SDS011;11795;47.054;15.408;2022-12-15T09:18:50;32.0;;;23.9;;
23252;SDS011;11795;47.054;15.408;2022-12-15T09:20:50;32.0;;;23.9;;
23252;SDS011;11795;47.054;15.408;2022-12-15T09:22:49;34.0;;;24.1;;
23252;SDS011;11795;47.054;15.408;2022-12-15T09:24:49;34.0;;;24.1;;
23252;SDS011;11795;47.054;15.408;2022-12-15T09:26:49;31.8;;;24.4;;
23252;SDS011;11795;47.054;15.408;2022-12-15T09:28:49;31.8;;;24.4;;
23252;SDS011;11795;47.054;15.408;2022-12-15T09:30:49;31.8;;;24.4;;
23252;SDS011;11795;47.054;15.408;2022-12-15T09:32:49;31.3;;;24.2;;
23252;SDS011;11795;47.054;15.408;2022-12-15T09:34:49;31.3;;;24.2;;
23252;SDS011;11795;47.054;15.408;2022-12-15T09:36:49;34.1;;;24.2;;
23252;SDS011;11795;47.054;15.408;2022-12-15T09:38:49;34.1;;;24.2;;
23252;SDS011;11795;47.054;15.408;2022-12-15T09:40:49;34.1;;;24.2;;
23252;SDS011;11795;47.054;15.408;2022-12-15T09:42:50;32.3;;;24.6;;
23252;SDS011;11795;47.054;15.408;2022-12-15T09:44:50;32.3;;;24.6;;
23252;SDS011;11795;47.054;15.408;2022-12-15T09:46:52;28.2;;;23.4;;
23252;SDS011;11795;47.054;15.408;2022-12-15T09:48:49;28.2;;;23.4;;
23252;SDS011;11795;47.054;15.408;2022-12-15T09:50:50;28.2;;;23.4;;
23252;SDS011;11795;47.054;15.408;2022-12-15T09:52:50;33.2;;;25.9;;
23252;SDS011;11795;47.054;15.408;2022-12-15T09:54:49;33.2;;;25.9;;
23252;SDS011;11795;47.054;15.408;2022-12-15T09:56:50;31.7;;;24.9;;
23252;SDS011;11795;47.054;15.408;2022-12-15T09:58:50;31.7;;;24.9;;
23252;SDS011;11795;47.054;15.408;2022-12-15T10:00:55;31.7;;;24.9;;
23252;SDS011;11795;47.054;15.408;2022-12-15T10:04:51;33.4;;;25.4;;
23252;SDS011;11795;47.054;15.408;2022-12-15T10:06:50;36.1;;;26.9;;
23252;SDS011;11795;47.054;15.408;2022-12-15T10:08:52;36.1;;;26.9;;
23252;SDS011;11795;47.054;15.408;2022-12-15T10:10:50;36.1;;;26.9;;
23252;SDS011;11795;47.054;15.408;2022-12-15T10:12:49;42.1;;;28.7;;
23252;SDS011;11795;47.054;15.408;2022-12-15T10:14:50;42.1;;;28.7;;
23252;SDS011;11795;47.054;15.408;2022-12-15T10:16:51;41.1;;;28.4;;
23252;SDS011;11795;47.054;15.408;2022-12-15T10:18:53;41.1;;;28.4;;
23252;SDS011;11795;47.054;15.408;2022-12-15T10:20:50;41.1;;;28.4;;
23252;SDS011;11795;47.054;15.408;2022-12-15T10:22:50;39.3;;;28.7;;
23252;SDS011;11795;47.054;15.408;2022-12-15T10:24:50;39.3;;;28.7;;
23252;SDS011;11795;47.054;15.408;2022-12-15T10:26:52;39.3;;;28.7;;
23252;SDS011;11795;47.054;15.408;2022-12-15T10:28:52;38.3;;;27.6;;
23252;SDS011;11795;47.054;15.408;2022-12-15T10:30:50;38.3;;;27.6;;
23252;SDS011;11795;47.054;15.408;2022-12-15T10:32:50;37.9;;;27.8;;
23252;SDS011;11795;47.054;15.408;2022-12-15T10:34:49;37.9;;;27.8;;
23252;SDS011;11795;47.054;15.408;2022-12-15T10:36:50;37.9;;;27.8;;
23252;SDS011;11795;47.054;15.408;2022-12-15T10:38:49;38.3;;;29.0;;
23252;SDS011;11795;47.054;15.408;2022-12-15T10:40:50;38.3;;;29.0;;
23252;SDS011;11795;47.054;15.408;2022-12-15T10:42:49;37.4;;;28.7;;
23252;SDS011;11795;47.054;15.408;2022-12-15T10:44:50;37.4;;;28.7;;
23252;SDS011;11795;47.054;15.408;2022-12-15T10:46:53;37.4;;;28.7;;
23252;SDS011;11795;47.054;15.408;2022-12-15T10:48:50;40.5;;;28.9;;
23252;SDS011;11795;47.054;15.408;2022-12-15T10:50:49;40.5;;;28.9;;
23252;SDS011;11795;47.054;15.408;2022-12-15T10:52:49;39.3;;;29.2;;
23252;SDS011;11795;47.054;15.408;2022-12-15T10:54:50;39.3;;;29.2;;
23252;SDS011;11795;47.054;15.408;2022-12-15T10:56:50;39.3;;;29.2;;
23252;SDS011;11795;47.054;15.408;2022-12-15T10:58:51;40.0;;;28.8;;
23252;SDS011;11795;47.054;15.408;2022-12-15T11:01:03;40.0;;;28.8;;
23252;SDS011;11795;47.054;15.408;2022-12-15T11:02:49;40.3;;;29.8;;
23252;SDS011;11795;47.054;15.408;2022-12-15T11:04:53;40.3;;;29.8;;
23252;SDS011;11795;47.054;15.408;2022-12-15T11:06:49;40.3;;;29.8;;
23252;SDS011;11795;47.054;15.408;2022-12-15T11:08:50;38.7;;;28.1;;
23252;SDS011;11795;47.054;15.408;2022-12-15T11:10:59;38.7;;;28.1;;
23252;SDS011;11795;47.054;15.408;2022-12-15T11:12:56;36.0;;;27.3;;
23252;SDS011;11795;47.054;15.408;2022-12-15T11:14:50;36.0;;;27.3;;
23252;SDS011;11795;47.054;15.408;2022-12-15T11:16:51;36.0;;;27.3;;
23252;SDS011;11795;47.054;15.408;2022-12-15T11:18:50;37.2;;;27.8;;
23252;SDS011;11795;47.054;15.408;2022-12-15T11:20:51;37.2;;;27.8;;
23252;SDS011;11795;47.054;15.408;2022-12-15T11:22:50;38.3;;;27.0;;
23252;SDS011;11795;47.054;15.408;2022-12-15T11:24:50;38.3;;;27.0;;
23252;SDS011;11795;47.054;15.408;2022-12-15T11:26:50;38.3;;;27.0;;
23252;SDS011;11795;47.054;15.408;2022-12-15T11:28:51;36.2;;;27.9;;
23252;SDS011;11795;47.054;15.408;2022-12-15T11:30:52;36.2;;;27.9;;
23252;SDS011;11795;47.054;15.408;2022-12-15T11:32:52;38.5;;;28.3;;
23252;SDS011;11795;47.054;15.408;2022-12-15T11:34:49;38.5;;;28.3;;
23252;SDS011;11795;47.054;15.408;2022-12-15T11:36:56;38.5;;;28.3;;
23252;SDS011;11795;47.054;15.408;2022-12-15T11:38:50;34.9;;;27.5;;
23252;SDS011;11795;47.054;15.408;2022-12-15T11:40:49;34.9;;;27.5;;
23252;SDS011;11795;47.054;15.408;2022-12-15T11:42:54;34.4;;;26.1;;
23252;SDS011;11795;47.054;15.408;2022-12-15T11:44:53;34.4;;;26.1;;
23252;SDS011;11795;47.054;15.408;2022-12-15T11:46:52;34.4;;;26.1;;
23252;SDS011;11795;47.054;15.408;2022-12-15T11:50:51;31.5;;;25.0;;
23252;SDS011;11795;47.054;15.408;2022-12-15T11:52:53;30.1;;;25.4;;
23252;SDS011;11795;47.054;15.408;2022-12-15T11:54:51;30.1;;;25.4;;
23252;SDS011;11795;47.054;15.408;2022-12-15T11:56:51;30.1;;;25.4;;